sensor_id;sensor_type;location;lat;lon;timestamp;P1;durP1;ratioP1;P2;durP2;ratioP2
18789;SDS011;9523;42.650;23.386;2023-12-20T00:02:18;13.63;;;7.73;;
18789;SDS011;9523;42.650;23.386;2023-12-20T00:04:45;14.50;;;8.00;;
18789;SDS011;9523;42.650;23.386;2023-12-20T00:07:11;13.73;;;7.20;;
18789;SDS011;9523;42.650;23.386;2023-12-20T00:09:40;11.63;;;7.20;;
18789;SDS011;9523;42.650;23.386;2023-12-20T00:12:07;12.37;;;7.53;;
18789;SDS011;9523;42.650;23.386;2023-12-20T00:14:34;14.87;;;8.37;;
18789;SDS011;9523;42.650;23.386;2023-12-20T00:17:00;15.97;;;8.10;;
18789;SDS011;9523;42.650;23.386;2023-12-20T00:19:28;15.07;;;8.03;;
18789;SDS011;9523;42.650;23.386;2023-12-20T00:21:54;13.97;;;8.43;;
18789;SDS011;9523;42.650;23.386;2023-12-20T00:24:21;15.30;;;8.47;;
18789;SDS011;9523;42.650;23.386;2023-12-20T00:26:49;17.20;;;9.77;;
18789;SDS011;9523;42.650;23.386;2023-12-20T00:29:16;20.07;;;12.20;;
18789;SDS011;9523;42.650;23.386;2023-12-20T00:31:43;21.40;;;12.00;;
18789;SDS011;9523;42.650;23.386;2023-12-20T00:34:10;23.57;;;13.23;;
18789;SDS011;9523;42.650;23.386;2023-12-20T00:36:37;21.23;;;12.13;;
18789;SDS011;9523;42.650;23.386;2023-12-20T00:39:03;24.00;;;12.47;;
18789;SDS011;9523;42.650;23.386;2023-12-20T00:41:32;17.13;;;10.53;;
18789;SDS011;9523;42.650;23.386;2023-12-20T00:44:00;19.80;;;10.77;;
18789;SDS011;9523;42.650;23.386;2023-12-20T00:46:26;19.00;;;8.73;;
18789;SDS011;9523;42.650;23.386;2023-12-20T00:48:53;12.47;;;7.60;;
18789;SDS011;9523;42.650;23.386;2023-12-20T00:51:20;12.40;;;7.53;;
18789;SDS011;9523;42.650;23.386;2023-12-20T00:53:47;12.87;;;7.00;;
18789;SDS011;9523;42.650;23.386;2023-12-20T00:56:14;14.47;;;6.33;;
18789;SDS011;9523;42.650;23.386;2023-12-20T00:58:41;12.07;;;6.80;;
18789;SDS011;9523;42.650;23.386;2023-12-20T01:01:09;12.60;;;6.90;;
18789;SDS011;9523;42.650;23.386;2023-12-20T01:03:36;13.03;;;7.50;;
18789;SDS011;9523;42.650;23.386;2023-12-20T01:06:03;12.20;;;7.10;;
18789;SDS011;9523;42.650;23.386;2023-12-20T01:08:30;12.07;;;7.10;;
18789;SDS011;9523;42.650;23.386;2023-12-20T01:10:57;15.50;;;7.17;;
18789;SDS011;9523;42.650;23.386;2023-12-20T01:13:24;12.87;;;7.37;;
18789;SDS011;9523;42.650;23.386;2023-12-20T01:15:50;9.90;;;6.60;;
18789;SDS011;9523;42.650;23.386;2023-12-20T01:18:19;11.17;;;6.87;;
18789;SDS011;9523;42.650;23.386;2023-12-20T01:20:45;8.53;;;6.03;;
18789;SDS011;9523;42.650;23.386;2023-12-20T01:23:12;12.77;;;7.23;;
18789;SDS011;9523;42.650;23.386;2023-12-20T01:25:39;11.63;;;6.33;;
18789;SDS011;9523;42.650;23.386;2023-12-20T01:28:05;12.77;;;7.23;;
18789;SDS011;9523;42.650;23.386;2023-12-20T01:30:32;12.73;;;7.17;;
18789;SDS011;9523;42.650;23.386;2023-12-20T01:32:59;12.57;;;7.00;;
18789;SDS011;9523;42.650;23.386;2023-12-20T01:35:28;13.37;;;7.60;;
18789;SDS011;9523;42.650;23.386;2023-12-20T01:37:54;12.70;;;7.17;;
18789;SDS011;9523;42.650;23.386;2023-12-20T01:40:21;13.63;;;7.53;;
18789;SDS011;9523;42.650;23.386;2023-12-20T01:42:57;13.63;;;7.67;;
18789;SDS011;9523;42.650;23.386;2023-12-20T01:45:24;17.97;;;9.47;;
18789;SDS011;9523;42.650;23.386;2023-12-20T01:47:50;18.33;;;10.33;;
18789;SDS011;9523;42.650;23.386;2023-12-20T01:50:17;26.23;;;12.23;;
18789;SDS011;9523;42.650;23.386;2023-12-20T01:52:45;25.00;;;13.37;;
18789;SDS011;9523;42.650;23.386;2023-12-20T01:55:12;23.10;;;13.40;;
18789;SDS011;9523;42.650;23.386;2023-12-20T01:57:40;23.83;;;14.27;;
18789;SDS011;9523;42.650;23.386;2023-12-20T02:00:08;24.13;;;13.37;;
18789;SDS011;9523;42.650;23.386;2023-12-20T02:02:35;23.60;;;12.63;;
18789;SDS011;9523;42.650;23.386;2023-12-20T02:05:03;19.63;;;12.03;;
18789;SDS011;9523;42.650;23.386;2023-12-20T02:07:30;20.43;;;11.60;;
18789;SDS011;9523;42.650;23.386;2023-12-20T02:09:58;22.97;;;12.30;;
18789;SDS011;9523;42.650;23.386;2023-12-20T02:12:25;23.10;;;12.13;;
18789;SDS011;9523;42.650;23.386;2023-12-20T02:14:52;19.83;;;12.43;;
18789;SDS011;9523;42.650;23.386;2023-12-20T02:17:19;25.27;;;13.93;;
18789;SDS011;9523;42.650;23.386;2023-12-20T02:19:46;26.30;;;14.73;;
18789;SDS011;9523;42.650;23.386;2023-12-20T02:22:14;26.60;;;15.67;;
18789;SDS011;9523;42.650;23.386;2023-12-20T02:24:40;31.93;;;17.53;;
18789;SDS011;9523;42.650;23.386;2023-12-20T02:27:07;28.97;;;17.50;;
18789;SDS011;9523;42.650;23.386;2023-12-20T02:29:34;38.70;;;19.73;;
18789;SDS011;9523;42.650;23.386;2023-12-20T02:32:01;36.20;;;19.90;;
18789;SDS011;9523;42.650;23.386;2023-12-20T02:34:28;41.23;;;21.07;;
18789;SDS011;9523;42.650;23.386;2023-12-20T02:36:55;36.90;;;20.40;;
18789;SDS011;9523;42.650;23.386;2023-12-20T02:39:23;35.07;;;20.57;;
18789;SDS011;9523;42.650;23.386;2023-12-20T02:41:50;33.03;;;19.67;;
18789;SDS011;9523;42.650;23.386;2023-12-20T02:44:16;33.87;;;20.27;;
18789;SDS011;9523;42.650;23.386;2023-12-20T02:46:43;38.73;;;21.50;;
18789;SDS011;9523;42.650;23.386;2023-12-20T02:49:10;37.37;;;20.97;;
18789;SDS011;9523;42.650;23.386;2023-12-20T02:51:36;49.70;;;27.33;;
18789;SDS011;9523;42.650;23.386;2023-12-20T02:54:04;49.80;;;29.10;;
18789;SDS011;9523;42.650;23.386;2023-12-20T02:56:32;55.00;;;29.77;;
18789;SDS011;9523;42.650;23.386;2023-12-20T02:58:59;59.23;;;32.53;;
18789;SDS011;9523;42.650;23.386;2023-12-20T03:01:26;56.83;;;31.73;;
18789;SDS011;9523;42.650;23.386;2023-12-20T03:03:53;61.97;;;33.97;;
18789;SDS011;9523;42.650;23.386;2023-12-20T03:06:20;61.27;;;32.40;;
18789;SDS011;9523;42.650;23.386;2023-12-20T03:08:46;72.33;;;34.90;;
18789;SDS011;9523;42.650;23.386;2023-12-20T03:11:13;71.17;;;35.23;;
18789;SDS011;9523;42.650;23.386;2023-12-20T03:13:41;62.00;;;32.40;;
18789;SDS011;9523;42.650;23.386;2023-12-20T03:16:08;72.87;;;34.20;;
18789;SDS011;9523;42.650;23.386;2023-12-20T03:18:35;83.40;;;35.37;;
18789;SDS011;9523;42.650;23.386;2023-12-20T03:21:02;97.60;;;39.40;;
18789;SDS011;9523;42.650;23.386;2023-12-20T03:23:29;82.67;;;36.87;;
18789;SDS011;9523;42.650;23.386;2023-12-20T03:25:55;74.77;;;34.10;;
18789;SDS011;9523;42.650;23.386;2023-12-20T03:28:22;65.60;;;33.67;;
18789;SDS011;9523;42.650;23.386;2023-12-20T03:30:50;65.80;;;34.40;;
18789;SDS011;9523;42.650;23.386;2023-12-20T03:33:17;69.60;;;34.60;;
18789;SDS011;9523;42.650;23.386;2023-12-20T03:35:44;67.67;;;34.70;;
18789;SDS011;9523;42.650;23.386;2023-12-20T03:38:11;69.30;;;35.63;;
18789;SDS011;9523;42.650;23.386;2023-12-20T03:40:38;68.43;;;34.93;;
18789;SDS011;9523;42.650;23.386;2023-12-20T03:43:04;68.97;;;34.37;;
18789;SDS011;9523;42.650;23.386;2023-12-20T03:45:31;62.73;;;33.53;;
18789;SDS011;9523;42.650;23.386;2023-12-20T03:47:59;66.83;;;35.10;;
18789;SDS011;9523;42.650;23.386;2023-12-20T03:50:26;56.57;;;29.63;;
18789;SDS011;9523;42.650;23.386;2023-12-20T03:52:54;66.53;;;34.57;;
18789;SDS011;9523;42.650;23.386;2023-12-20T03:55:20;49.90;;;25.73;;
18789;SDS011;9523;42.650;23.386;2023-12-20T03:57:47;40.47;;;21.03;;
18789;SDS011;9523;42.650;23.386;2023-12-20T04:00:14;29.00;;;16.97;;
18789;SDS011;9523;42.650;23.386;2023-12-20T04:02:41;40.37;;;21.33;;
18789;SDS011;9523;42.650;23.386;2023-12-20T04:05:09;23.83;;;13.70;;
18789;SDS011;9523;42.650;23.386;2023-12-20T04:07:36;27.93;;;14.73;;
18789;SDS011;9523;42.650;23.386;2023-12-20T04:10:04;27.30;;;14.40;;
18789;SDS011;9523;42.650;23.386;2023-12-20T04:12:31;22.20;;;12.57;;
18789;SDS011;9523;42.650;23.386;2023-12-20T04:14:57;17.23;;;10.30;;
18789;SDS011;9523;42.650;23.386;2023-12-20T04:17:24;20.60;;;10.43;;
18789;SDS011;9523;42.650;23.386;2023-12-20T04:19:51;18.13;;;9.93;;
18789;SDS011;9523;42.650;23.386;2023-12-20T04:22:19;21.17;;;10.10;;
18789;SDS011;9523;42.650;23.386;2023-12-20T04:24:46;20.03;;;10.93;;
18789;SDS011;9523;42.650;23.386;2023-12-20T04:27:13;22.43;;;12.03;;
18789;SDS011;9523;42.650;23.386;2023-12-20T04:29:40;20.73;;;11.20;;
18789;SDS011;9523;42.650;23.386;2023-12-20T04:32:06;19.53;;;11.73;;
18789;SDS011;9523;42.650;23.386;2023-12-20T04:34:33;17.23;;;10.17;;
18789;SDS011;9523;42.650;23.386;2023-12-20T04:36:59;17.83;;;9.73;;
18789;SDS011;9523;42.650;23.386;2023-12-20T04:39:28;16.70;;;8.83;;
18789;SDS011;9523;42.650;23.386;2023-12-20T04:41:55;16.17;;;8.87;;
18789;SDS011;9523;42.650;23.386;2023-12-20T04:44:22;14.47;;;8.33;;
18789;SDS011;9523;42.650;23.386;2023-12-20T04:46:48;20.47;;;11.43;;
18789;SDS011;9523;42.650;23.386;2023-12-20T04:49:15;21.57;;;12.60;;
18789;SDS011;9523;42.650;23.386;2023-12-20T04:51:42;41.27;;;20.60;;
18789;SDS011;9523;42.650;23.386;2023-12-20T04:54:09;36.70;;;19.57;;
18789;SDS011;9523;42.650;23.386;2023-12-20T04:56:37;33.77;;;19.47;;
18789;SDS011;9523;42.650;23.386;2023-12-20T04:59:04;41.27;;;23.70;;
18789;SDS011;9523;42.650;23.386;2023-12-20T05:01:33;81.30;;;36.17;;
18789;SDS011;9523;42.650;23.386;2023-12-20T05:04:00;110.97;;;36.07;;
18789;SDS011;9523;42.650;23.386;2023-12-20T05:06:27;88.90;;;36.47;;
18789;SDS011;9523;42.650;23.386;2023-12-20T05:08:53;86.40;;;36.53;;
18789;SDS011;9523;42.650;23.386;2023-12-20T05:11:20;82.43;;;37.30;;
18789;SDS011;9523;42.650;23.386;2023-12-20T05:13:48;92.23;;;38.33;;
18789;SDS011;9523;42.650;23.386;2023-12-20T05:16:15;91.43;;;37.93;;
18789;SDS011;9523;42.650;23.386;2023-12-20T05:18:43;90.47;;;35.47;;
18789;SDS011;9523;42.650;23.386;2023-12-20T05:21:09;88.97;;;35.33;;
18789;SDS011;9523;42.650;23.386;2023-12-20T05:23:36;96.97;;;36.90;;
18789;SDS011;9523;42.650;23.386;2023-12-20T05:26:03;76.40;;;32.93;;
18789;SDS011;9523;42.650;23.386;2023-12-20T05:28:30;97.77;;;33.20;;
18789;SDS011;9523;42.650;23.386;2023-12-20T05:30:58;69.67;;;31.17;;
18789;SDS011;9523;42.650;23.386;2023-12-20T05:33:24;84.70;;;27.67;;
18789;SDS011;9523;42.650;23.386;2023-12-20T05:35:55;106.73;;;29.23;;
18789;SDS011;9523;42.650;23.386;2023-12-20T05:38:21;108.17;;;30.10;;
18789;SDS011;9523;42.650;23.386;2023-12-20T05:40:48;92.37;;;29.57;;
18789;SDS011;9523;42.650;23.386;2023-12-20T05:43:15;107.10;;;27.60;;
18789;SDS011;9523;42.650;23.386;2023-12-20T05:45:42;84.63;;;26.13;;
18789;SDS011;9523;42.650;23.386;2023-12-20T05:48:10;101.13;;;25.33;;
18789;SDS011;9523;42.650;23.386;2023-12-20T05:50:36;90.43;;;25.67;;
18789;SDS011;9523;42.650;23.386;2023-12-20T05:53:04;114.33;;;24.90;;
18789;SDS011;9523;42.650;23.386;2023-12-20T05:55:31;90.70;;;23.73;;
18789;SDS011;9523;42.650;23.386;2023-12-20T05:57:58;74.97;;;20.40;;
18789;SDS011;9523;42.650;23.386;2023-12-20T06:00:25;70.57;;;23.50;;
18789;SDS011;9523;42.650;23.386;2023-12-20T06:02:51;86.10;;;25.77;;
18789;SDS011;9523;42.650;23.386;2023-12-20T06:05:20;78.33;;;22.77;;
18789;SDS011;9523;42.650;23.386;2023-12-20T06:07:47;86.00;;;23.67;;
18789;SDS011;9523;42.650;23.386;2023-12-20T06:10:16;70.30;;;22.83;;
18789;SDS011;9523;42.650;23.386;2023-12-20T06:12:42;66.73;;;21.80;;
18789;SDS011;9523;42.650;23.386;2023-12-20T06:15:09;81.80;;;23.97;;
18789;SDS011;9523;42.650;23.386;2023-12-20T06:17:36;105.57;;;24.43;;
18789;SDS011;9523;42.650;23.386;2023-12-20T06:20:03;51.63;;;20.73;;
18789;SDS011;9523;42.650;23.386;2023-12-20T06:22:34;91.53;;;22.60;;
18789;SDS011;9523;42.650;23.386;2023-12-20T06:25:01;55.70;;;22.60;;
18789;SDS011;9523;42.650;23.386;2023-12-20T06:27:28;69.83;;;23.93;;
18789;SDS011;9523;42.650;23.386;2023-12-20T06:29:56;94.03;;;25.70;;
18789;SDS011;9523;42.650;23.386;2023-12-20T06:32:22;56.23;;;21.93;;
18789;SDS011;9523;42.650;23.386;2023-12-20T06:34:49;67.50;;;22.73;;
18789;SDS011;9523;42.650;23.386;2023-12-20T06:37:16;58.30;;;22.80;;
18789;SDS011;9523;42.650;23.386;2023-12-20T06:39:44;62.37;;;22.87;;
18789;SDS011;9523;42.650;23.386;2023-12-20T06:42:11;64.93;;;22.53;;
18789;SDS011;9523;42.650;23.386;2023-12-20T06:44:38;90.10;;;24.87;;
18789;SDS011;9523;42.650;23.386;2023-12-20T06:47:05;56.83;;;22.77;;
18789;SDS011;9523;42.650;23.386;2023-12-20T06:49:32;48.27;;;22.10;;
18789;SDS011;9523;42.650;23.386;2023-12-20T06:51:58;51.50;;;21.93;;
18789;SDS011;9523;42.650;23.386;2023-12-20T06:54:25;51.37;;;21.80;;
18789;SDS011;9523;42.650;23.386;2023-12-20T06:56:53;47.57;;;21.70;;
18789;SDS011;9523;42.650;23.386;2023-12-20T06:59:20;52.80;;;21.53;;
18789;SDS011;9523;42.650;23.386;2023-12-20T07:01:47;53.63;;;22.80;;
18789;SDS011;9523;42.650;23.386;2023-12-20T07:04:14;66.57;;;31.67;;
18789;SDS011;9523;42.650;23.386;2023-12-20T07:06:41;70.67;;;32.10;;
18789;SDS011;9523;42.650;23.386;2023-12-20T07:09:08;63.43;;;31.27;;
18789;SDS011;9523;42.650;23.386;2023-12-20T07:11:35;69.90;;;35.63;;
18789;SDS011;9523;42.650;23.386;2023-12-20T07:14:03;61.53;;;31.57;;
18789;SDS011;9523;42.650;23.386;2023-12-20T07:16:30;49.80;;;25.50;;
18789;SDS011;9523;42.650;23.386;2023-12-20T07:18:57;47.40;;;25.60;;
18789;SDS011;9523;42.650;23.386;2023-12-20T07:21:23;32.80;;;18.03;;
18789;SDS011;9523;42.650;23.386;2023-12-20T07:23:50;37.57;;;21.20;;
18789;SDS011;9523;42.650;23.386;2023-12-20T07:26:17;40.83;;;22.17;;
18789;SDS011;9523;42.650;23.386;2023-12-20T07:28:44;41.97;;;23.63;;
18789;SDS011;9523;42.650;23.386;2023-12-20T07:31:16;41.67;;;23.43;;
18789;SDS011;9523;42.650;23.386;2023-12-20T07:33:43;49.60;;;26.70;;
18789;SDS011;9523;42.650;23.386;2023-12-20T07:36:16;61.17;;;29.80;;
18789;SDS011;9523;42.650;23.386;2023-12-20T07:38:43;67.40;;;30.90;;
18789;SDS011;9523;42.650;23.386;2023-12-20T07:41:10;77.83;;;30.30;;
18789;SDS011;9523;42.650;23.386;2023-12-20T07:43:37;76.33;;;30.83;;
18789;SDS011;9523;42.650;23.386;2023-12-20T07:46:04;68.50;;;29.37;;
18789;SDS011;9523;42.650;23.386;2023-12-20T07:48:32;75.30;;;33.70;;
18789;SDS011;9523;42.650;23.386;2023-12-20T07:51:01;72.83;;;30.67;;
18789;SDS011;9523;42.650;23.386;2023-12-20T07:53:28;75.93;;;33.20;;
18789;SDS011;9523;42.650;23.386;2023-12-20T07:55:55;78.77;;;31.70;;
18789;SDS011;9523;42.650;23.386;2023-12-20T07:58:22;81.97;;;33.33;;
18789;SDS011;9523;42.650;23.386;2023-12-20T08:00:48;75.00;;;32.53;;
18789;SDS011;9523;42.650;23.386;2023-12-20T08:03:15;71.33;;;33.23;;
18789;SDS011;9523;42.650;23.386;2023-12-20T08:05:43;84.20;;;31.33;;
18789;SDS011;9523;42.650;23.386;2023-12-20T08:08:10;78.23;;;31.60;;
18789;SDS011;9523;42.650;23.386;2023-12-20T08:10:37;74.17;;;30.73;;
18789;SDS011;9523;42.650;23.386;2023-12-20T08:13:03;70.40;;;31.37;;
18789;SDS011;9523;42.650;23.386;2023-12-20T08:15:30;70.63;;;31.00;;
18789;SDS011;9523;42.650;23.386;2023-12-20T08:17:56;74.30;;;30.87;;
18789;SDS011;9523;42.650;23.386;2023-12-20T08:20:23;79.40;;;33.37;;
18789;SDS011;9523;42.650;23.386;2023-12-20T08:22:51;71.63;;;33.87;;
18789;SDS011;9523;42.650;23.386;2023-12-20T08:25:18;83.47;;;33.17;;
18789;SDS011;9523;42.650;23.386;2023-12-20T08:27:44;85.20;;;32.83;;
18789;SDS011;9523;42.650;23.386;2023-12-20T08:30:11;83.57;;;34.23;;
18789;SDS011;9523;42.650;23.386;2023-12-20T08:32:48;76.40;;;33.47;;
18789;SDS011;9523;42.650;23.386;2023-12-20T08:35:27;80.20;;;34.40;;
18789;SDS011;9523;42.650;23.386;2023-12-20T08:37:56;80.80;;;32.23;;
18789;SDS011;9523;42.650;23.386;2023-12-20T08:40:23;81.07;;;32.33;;
18789;SDS011;9523;42.650;23.386;2023-12-20T08:42:49;82.13;;;32.73;;
18789;SDS011;9523;42.650;23.386;2023-12-20T08:45:16;84.03;;;32.73;;
18789;SDS011;9523;42.650;23.386;2023-12-20T08:47:43;74.37;;;32.50;;
18789;SDS011;9523;42.650;23.386;2023-12-20T08:50:10;86.83;;;34.83;;
18789;SDS011;9523;42.650;23.386;2023-12-20T08:52:37;79.17;;;33.00;;
18789;SDS011;9523;42.650;23.386;2023-12-20T08:55:09;72.63;;;31.67;;
18789;SDS011;9523;42.650;23.386;2023-12-20T08:57:39;78.80;;;30.87;;
18789;SDS011;9523;42.650;23.386;2023-12-20T09:00:06;70.00;;;30.83;;
18789;SDS011;9523;42.650;23.386;2023-12-20T09:02:33;73.60;;;30.10;;
18789;SDS011;9523;42.650;23.386;2023-12-20T09:05:01;69.67;;;29.87;;
18789;SDS011;9523;42.650;23.386;2023-12-20T09:07:30;73.93;;;31.20;;
18789;SDS011;9523;42.650;23.386;2023-12-20T09:10:00;66.20;;;30.43;;
18789;SDS011;9523;42.650;23.386;2023-12-20T09:12:29;74.73;;;31.07;;
18789;SDS011;9523;42.650;23.386;2023-12-20T09:14:56;66.87;;;29.50;;
18789;SDS011;9523;42.650;23.386;2023-12-20T09:17:22;76.20;;;29.87;;
18789;SDS011;9523;42.650;23.386;2023-12-20T09:19:49;74.63;;;29.80;;
18789;SDS011;9523;42.650;23.386;2023-12-20T09:22:17;64.67;;;30.27;;
18789;SDS011;9523;42.650;23.386;2023-12-20T09:24:44;74.87;;;32.33;;
18789;SDS011;9523;42.650;23.386;2023-12-20T09:27:11;74.47;;;29.43;;
18789;SDS011;9523;42.650;23.386;2023-12-20T09:29:39;64.27;;;29.23;;
18789;SDS011;9523;42.650;23.386;2023-12-20T09:32:06;69.37;;;30.97;;
18789;SDS011;9523;42.650;23.386;2023-12-20T09:34:33;70.10;;;28.40;;
18789;SDS011;9523;42.650;23.386;2023-12-20T09:37:00;65.40;;;28.87;;
18789;SDS011;9523;42.650;23.386;2023-12-20T09:39:28;68.73;;;30.37;;
18789;SDS011;9523;42.650;23.386;2023-12-20T09:41:59;75.53;;;31.57;;
18789;SDS011;9523;42.650;23.386;2023-12-20T09:44:26;77.83;;;31.90;;
18789;SDS011;9523;42.650;23.386;2023-12-20T09:46:54;70.33;;;31.23;;
18789;SDS011;9523;42.650;23.386;2023-12-20T09:49:21;77.93;;;30.70;;
18789;SDS011;9523;42.650;23.386;2023-12-20T09:51:49;75.40;;;31.17;;
18789;SDS011;9523;42.650;23.386;2023-12-20T09:54:16;71.07;;;32.13;;
18789;SDS011;9523;42.650;23.386;2023-12-20T09:56:43;72.70;;;31.93;;
18789;SDS011;9523;42.650;23.386;2023-12-20T09:59:13;74.77;;;32.30;;
18789;SDS011;9523;42.650;23.386;2023-12-20T10:01:40;74.40;;;33.60;;
18789;SDS011;9523;42.650;23.386;2023-12-20T10:04:09;80.60;;;34.17;;
18789;SDS011;9523;42.650;23.386;2023-12-20T10:06:37;75.83;;;35.27;;
18789;SDS011;9523;42.650;23.386;2023-12-20T10:09:04;70.50;;;31.10;;
18789;SDS011;9523;42.650;23.386;2023-12-20T10:11:31;72.43;;;33.40;;
18789;SDS011;9523;42.650;23.386;2023-12-20T10:13:59;74.37;;;33.57;;
18789;SDS011;9523;42.650;23.386;2023-12-20T10:16:25;85.33;;;34.37;;
18789;SDS011;9523;42.650;23.386;2023-12-20T10:18:52;73.37;;;33.47;;
18789;SDS011;9523;42.650;23.386;2023-12-20T10:21:20;77.27;;;33.87;;
18789;SDS011;9523;42.650;23.386;2023-12-20T10:23:47;74.23;;;33.33;;
18789;SDS011;9523;42.650;23.386;2023-12-20T10:26:20;73.80;;;33.67;;
18789;SDS011;9523;42.650;23.386;2023-12-20T10:28:49;69.90;;;31.60;;
18789;SDS011;9523;42.650;23.386;2023-12-20T10:31:25;67.60;;;31.07;;
18789;SDS011;9523;42.650;23.386;2023-12-20T10:33:52;66.13;;;31.10;;
18789;SDS011;9523;42.650;23.386;2023-12-20T10:36:20;69.83;;;30.70;;
18789;SDS011;9523;42.650;23.386;2023-12-20T10:38:47;64.07;;;31.27;;
18789;SDS011;9523;42.650;23.386;2023-12-20T10:41:17;63.93;;;30.77;;
18789;SDS011;9523;42.650;23.386;2023-12-20T10:43:44;64.77;;;29.60;;
18789;SDS011;9523;42.650;23.386;2023-12-20T10:46:11;67.93;;;32.70;;
18789;SDS011;9523;42.650;23.386;2023-12-20T10:48:38;59.50;;;32.67;;
18789;SDS011;9523;42.650;23.386;2023-12-20T10:51:05;60.70;;;31.00;;
18789;SDS011;9523;42.650;23.386;2023-12-20T10:53:34;60.60;;;31.27;;
18789;SDS011;9523;42.650;23.386;2023-12-20T10:56:03;64.07;;;31.83;;
18789;SDS011;9523;42.650;23.386;2023-12-20T10:58:30;62.63;;;32.20;;
18789;SDS011;9523;42.650;23.386;2023-12-20T11:00:59;64.03;;;31.60;;
18789;SDS011;9523;42.650;23.386;2023-12-20T11:03:27;62.43;;;31.00;;
18789;SDS011;9523;42.650;23.386;2023-12-20T11:05:56;65.80;;;31.30;;
18789;SDS011;9523;42.650;23.386;2023-12-20T11:08:26;58.80;;;29.57;;
18789;SDS011;9523;42.650;23.386;2023-12-20T11:10:56;59.63;;;30.07;;
18789;SDS011;9523;42.650;23.386;2023-12-20T11:13:26;65.20;;;30.97;;
18789;SDS011;9523;42.650;23.386;2023-12-20T11:15:54;61.27;;;31.67;;
18789;SDS011;9523;42.650;23.386;2023-12-20T11:18:21;60.97;;;30.20;;
18789;SDS011;9523;42.650;23.386;2023-12-20T11:20:55;58.97;;;30.93;;
18789;SDS011;9523;42.650;23.386;2023-12-20T11:23:26;59.93;;;30.70;;
18789;SDS011;9523;42.650;23.386;2023-12-20T11:25:54;55.67;;;29.87;;
18789;SDS011;9523;42.650;23.386;2023-12-20T11:28:24;61.97;;;30.80;;
18789;SDS011;9523;42.650;23.386;2023-12-20T11:30:51;57.33;;;30.67;;
18789;SDS011;9523;42.650;23.386;2023-12-20T11:33:21;54.47;;;30.23;;
18789;SDS011;9523;42.650;23.386;2023-12-20T11:35:48;57.70;;;28.93;;
18789;SDS011;9523;42.650;23.386;2023-12-20T11:38:15;56.37;;;30.70;;
18789;SDS011;9523;42.650;23.386;2023-12-20T11:40:42;53.17;;;28.53;;
18789;SDS011;9523;42.650;23.386;2023-12-20T11:43:09;54.00;;;29.10;;
18789;SDS011;9523;42.650;23.386;2023-12-20T11:45:38;55.87;;;28.50;;
18789;SDS011;9523;42.650;23.386;2023-12-20T11:48:15;53.90;;;28.57;;
18789;SDS011;9523;42.650;23.386;2023-12-20T11:50:48;61.60;;;29.70;;
18789;SDS011;9523;42.650;23.386;2023-12-20T11:53:15;52.30;;;27.53;;
18789;SDS011;9523;42.650;23.386;2023-12-20T11:55:47;50.47;;;26.53;;
18789;SDS011;9523;42.650;23.386;2023-12-20T11:58:14;52.83;;;26.23;;
18789;SDS011;9523;42.650;23.386;2023-12-20T12:00:43;50.10;;;26.47;;
18789;SDS011;9523;42.650;23.386;2023-12-20T12:03:10;46.80;;;25.57;;
18789;SDS011;9523;42.650;23.386;2023-12-20T12:05:38;45.77;;;27.03;;
18789;SDS011;9523;42.650;23.386;2023-12-20T12:08:05;49.80;;;27.10;;
18789;SDS011;9523;42.650;23.386;2023-12-20T12:10:32;50.17;;;26.93;;
18789;SDS011;9523;42.650;23.386;2023-12-20T12:13:00;52.47;;;26.13;;
18789;SDS011;9523;42.650;23.386;2023-12-20T12:15:29;54.50;;;27.63;;
18789;SDS011;9523;42.650;23.386;2023-12-20T12:17:57;53.77;;;28.73;;
18789;SDS011;9523;42.650;23.386;2023-12-20T12:20:24;50.60;;;27.90;;
18789;SDS011;9523;42.650;23.386;2023-12-20T12:22:57;53.23;;;29.27;;
18789;SDS011;9523;42.650;23.386;2023-12-20T12:25:24;54.07;;;27.10;;
18789;SDS011;9523;42.650;23.386;2023-12-20T12:27:55;53.80;;;28.60;;
18789;SDS011;9523;42.650;23.386;2023-12-20T12:30:22;58.07;;;30.97;;
18789;SDS011;9523;42.650;23.386;2023-12-20T12:32:50;55.27;;;29.23;;
18789;SDS011;9523;42.650;23.386;2023-12-20T12:35:18;58.33;;;29.40;;
18789;SDS011;9523;42.650;23.386;2023-12-20T12:37:45;57.27;;;29.00;;
18789;SDS011;9523;42.650;23.386;2023-12-20T12:40:12;54.20;;;28.53;;
18789;SDS011;9523;42.650;23.386;2023-12-20T12:42:40;50.03;;;26.60;;
18789;SDS011;9523;42.650;23.386;2023-12-20T12:45:07;44.63;;;26.60;;
18789;SDS011;9523;42.650;23.386;2023-12-20T12:47:34;45.53;;;26.30;;
18789;SDS011;9523;42.650;23.386;2023-12-20T12:50:02;50.97;;;27.07;;
18789;SDS011;9523;42.650;23.386;2023-12-20T12:52:33;51.73;;;27.13;;
18789;SDS011;9523;42.650;23.386;2023-12-20T12:55:00;49.33;;;27.27;;
18789;SDS011;9523;42.650;23.386;2023-12-20T12:57:30;57.73;;;28.47;;
18789;SDS011;9523;42.650;23.386;2023-12-20T12:59:56;52.60;;;28.27;;
18789;SDS011;9523;42.650;23.386;2023-12-20T13:02:24;60.10;;;28.67;;
18789;SDS011;9523;42.650;23.386;2023-12-20T13:04:51;59.67;;;30.47;;
18789;SDS011;9523;42.650;23.386;2023-12-20T13:07:17;60.90;;;31.97;;
18789;SDS011;9523;42.650;23.386;2023-12-20T13:09:46;60.30;;;29.27;;
18789;SDS011;9523;42.650;23.386;2023-12-20T13:12:13;60.17;;;29.83;;
18789;SDS011;9523;42.650;23.386;2023-12-20T13:14:40;62.83;;;30.70;;
18789;SDS011;9523;42.650;23.386;2023-12-20T13:17:06;71.77;;;34.10;;
18789;SDS011;9523;42.650;23.386;2023-12-20T13:19:33;66.43;;;33.67;;
18789;SDS011;9523;42.650;23.386;2023-12-20T13:22:00;68.90;;;32.60;;
18789;SDS011;9523;42.650;23.386;2023-12-20T13:24:27;68.97;;;32.73;;
18789;SDS011;9523;42.650;23.386;2023-12-20T13:26:59;62.53;;;30.47;;
18789;SDS011;9523;42.650;23.386;2023-12-20T13:29:25;63.43;;;30.33;;
18789;SDS011;9523;42.650;23.386;2023-12-20T13:31:52;68.93;;;31.77;;
18789;SDS011;9523;42.650;23.386;2023-12-20T13:34:19;72.10;;;32.80;;
18789;SDS011;9523;42.650;23.386;2023-12-20T13:36:46;70.67;;;31.73;;
18789;SDS011;9523;42.650;23.386;2023-12-20T13:39:15;69.83;;;29.87;;
18789;SDS011;9523;42.650;23.386;2023-12-20T13:41:42;57.30;;;29.40;;
18789;SDS011;9523;42.650;23.386;2023-12-20T13:44:10;66.93;;;31.27;;
18789;SDS011;9523;42.650;23.386;2023-12-20T13:46:37;64.10;;;29.67;;
18789;SDS011;9523;42.650;23.386;2023-12-20T13:49:04;64.43;;;29.20;;
18789;SDS011;9523;42.650;23.386;2023-12-20T13:51:31;60.77;;;28.13;;
18789;SDS011;9523;42.650;23.386;2023-12-20T13:53:58;65.10;;;28.80;;
18789;SDS011;9523;42.650;23.386;2023-12-20T13:56:25;65.43;;;28.83;;
18789;SDS011;9523;42.650;23.386;2023-12-20T13:58:51;65.47;;;30.80;;
18789;SDS011;9523;42.650;23.386;2023-12-20T14:01:20;72.40;;;30.93;;
18789;SDS011;9523;42.650;23.386;2023-12-20T14:03:47;62.20;;;29.67;;
18789;SDS011;9523;42.650;23.386;2023-12-20T14:06:13;62.23;;;29.57;;
18789;SDS011;9523;42.650;23.386;2023-12-20T14:08:41;64.67;;;29.13;;
18789;SDS011;9523;42.650;23.386;2023-12-20T14:11:08;67.87;;;29.77;;
18789;SDS011;9523;42.650;23.386;2023-12-20T14:13:36;71.37;;;30.87;;
18789;SDS011;9523;42.650;23.386;2023-12-20T14:16:02;68.97;;;32.57;;
18789;SDS011;9523;42.650;23.386;2023-12-20T14:18:31;70.73;;;30.93;;
18789;SDS011;9523;42.650;23.386;2023-12-20T14:20:57;76.40;;;31.83;;
18789;SDS011;9523;42.650;23.386;2023-12-20T14:23:24;74.10;;;31.93;;
18789;SDS011;9523;42.650;23.386;2023-12-20T14:25:51;69.27;;;33.60;;